createdAt,value
2022-08-04T00:00:48.169Z,2.15
2022-08-04T00:03:24.200Z,1.70
2022-08-04T00:06:04.125Z,2.05
2022-08-04T00:08:44.613Z,2.53
2022-08-04T00:11:16.996Z,2.15
2022-08-04T00:13:59.829Z,2.20
2022-08-04T00:16:38.087Z,1.80
2022-08-04T00:19:18.104Z,1.80
2022-08-04T00:21:50.253Z,2.30
2022-08-04T00:24:20.482Z,2.22
2022-08-04T00:26:49.178Z,2.20
2022-08-04T00:29:17.623Z,1.90
2022-08-04T00:31:55.966Z,2.10
2022-08-04T00:34:29.135Z,2.33
2022-08-04T00:36:59.341Z,2.30
2022-08-04T00:39:28.696Z,2.22
2022-08-04T00:42:27.409Z,2.35
2022-08-04T00:45:13.992Z,2.35
2022-08-04T00:47:59.157Z,2.30
2022-08-04T00:50:38.905Z,2.35
2022-08-04T00:53:09.819Z,2.30
2022-08-04T00:56:05.677Z,1.95
2022-08-04T00:58:48.203Z,2.50
2022-08-04T01:01:30.130Z,2.15
2022-08-04T01:04:05.552Z,2.10
2022-08-04T01:06:40.843Z,2.28
2022-08-04T01:09:31.888Z,2.15
2022-08-04T01:12:19.727Z,2.60
2022-08-04T01:15:04.129Z,2.22
2022-08-04T01:17:45.246Z,2.20
2022-08-04T01:20:22.292Z,2.60
2022-08-04T01:23:28.200Z,2.40
2022-08-04T01:26:44.184Z,2.42
2022-08-04T01:29:15.800Z,2.22
2022-08-04T01:31:59.507Z,2.50
2022-08-04T01:34:31.298Z,2.35
2022-08-04T01:37:04.822Z,2.30
2022-08-04T01:39:43.149Z,2.30
2022-08-04T01:42:32.056Z,2.50
2022-08-04T01:45:06.229Z,2.30
2022-08-04T01:47:38.029Z,2.55
2022-08-04T01:50:08.885Z,2.60
2022-08-04T01:52:39.316Z,2.85
2022-08-04T01:55:10.414Z,2.80
2022-08-04T01:57:44.069Z,2.60
2022-08-04T02:00:17.513Z,2.50
2022-08-04T02:02:46.512Z,2.83
2022-08-04T02:05:18.043Z,2.70
2022-08-04T02:08:07.732Z,2.45
2022-08-04T02:10:49.200Z,2.58
2022-08-04T02:13:24.660Z,3.05
2022-08-04T02:16:05.195Z,2.60
2022-08-04T02:18:45.830Z,2.55
2022-08-04T02:21:17.002Z,2.50
2022-08-04T02:23:52.219Z,2.78
2022-08-04T02:26:23.077Z,2.70
2022-08-04T02:29:01.662Z,2.40
2022-08-04T02:31:33.982Z,2.72
2022-08-04T02:34:08.688Z,2.65
2022-08-04T02:36:40.473Z,2.53
2022-08-04T02:39:10.996Z,2.58
2022-08-04T02:41:41.106Z,2.90
2022-08-04T02:44:11.559Z,2.88
2022-08-04T02:46:44.770Z,2.90
2022-08-04T02:49:17.244Z,2.50
2022-08-04T02:51:48.978Z,3.20
2022-08-04T02:54:30.283Z,3.13
2022-08-04T02:57:04.427Z,2.70
2022-08-04T02:59:55.472Z,3.17
2022-08-04T03:02:35.963Z,2.72
2022-08-04T03:05:12.900Z,2.95
2022-08-04T03:08:08.872Z,2.95
2022-08-04T03:11:14.552Z,2.55
2022-08-04T03:14:12.878Z,3.05
2022-08-04T03:17:07.576Z,2.67
2022-08-04T03:20:05.401Z,2.50
2022-08-04T03:23:13.077Z,2.90
2022-08-04T03:26:27.491Z,2.50
2022-08-04T03:29:37.044Z,3.10
2022-08-04T03:32:50.187Z,2.53
2022-08-04T03:35:41.366Z,2.47
2022-08-04T03:38:51.432Z,2.55
2022-08-04T03:41:51.693Z,3.00
2022-08-04T03:45:04.960Z,2.97
2022-08-04T03:48:10.577Z,2.78
2022-08-04T03:51:34.900Z,2.90
2022-08-04T03:54:55.710Z,2.55
2022-08-04T03:58:08.032Z,2.53
2022-08-04T04:00:45.602Z,2.53
2022-08-04T04:03:42.410Z,2.58
2022-08-04T04:06:54.218Z,2.30
2022-08-04T04:09:56.954Z,2.50
2022-08-04T04:12:50.824Z,2.20
2022-08-04T04:15:50.192Z,2.47
2022-08-04T04:18:42.478Z,2.60
2022-08-04T04:21:31.605Z,2.70
2022-08-04T04:24:18.955Z,2.50
2022-08-04T04:27:00.190Z,2.95
2022-08-04T04:30:01.743Z,2.70
2022-08-04T04:32:44.830Z,3.08
2022-08-04T04:35:24.166Z,3.10
2022-08-04T04:38:08.731Z,2.60
2022-08-04T04:40:51.248Z,2.92
2022-08-04T04:43:50.787Z,2.90
2022-08-04T04:46:33.364Z,3.42
2022-08-04T04:49:10.058Z,2.97
2022-08-04T04:51:45.720Z,3.45
2022-08-04T04:54:34.458Z,2.95
2022-08-04T04:57:10.460Z,3.20
2022-08-04T04:59:46.773Z,2.70
2022-08-04T05:02:42.967Z,2.60
2022-08-04T05:05:28.797Z,2.83
2022-08-04T05:08:45.317Z,3.05
2022-08-04T05:11:40.909Z,3.15
2022-08-04T05:14:34.755Z,2.78
2022-08-04T05:17:11.898Z,3.35
2022-08-04T05:20:01.928Z,3.30
2022-08-04T05:22:36.440Z,3.03
2022-08-04T05:25:09.831Z,3.00
2022-08-04T05:27:42.685Z,2.92
2022-08-04T05:30:13.783Z,3.28
2022-08-04T05:32:50.041Z,2.90
2022-08-04T05:36:06.202Z,2.90
2022-08-04T05:38:32.689Z,2.40
2022-08-04T05:41:05.818Z,2.67
2022-08-04T05:43:37.453Z,2.67
2022-08-04T05:46:06.768Z,2.85
2022-08-04T05:48:36.884Z,2.80
2022-08-04T05:51:06.569Z,2.50
2022-08-04T05:53:36.422Z,2.30
2022-08-04T05:56:07.300Z,2.38
2022-08-04T05:58:37.999Z,2.47
2022-08-04T06:01:09.529Z,2.42
2022-08-04T06:03:39.905Z,3.05
2022-08-04T06:06:09.433Z,2.47
2022-08-04T06:08:37.748Z,2.30
2022-08-04T06:11:09.525Z,2.40
2022-08-04T06:13:49.158Z,2.42
2022-08-04T06:16:29.775Z,2.60
2022-08-04T06:20:02.999Z,2.30
2022-08-04T06:21:58.823Z,2.17
2022-08-04T06:24:30.822Z,2.85
2022-08-04T06:27:00.855Z,2.30
2022-08-04T06:29:36.638Z,2.22
2022-08-04T06:32:30.272Z,2.90
2022-08-04T06:35:03.642Z,2.30
2022-08-04T06:37:42.673Z,1.95
2022-08-04T06:40:30.633Z,2.10
2022-08-04T06:43:01.852Z,2.20
2022-08-04T06:45:34.735Z,2.20
2022-08-04T06:48:04.886Z,2.50
2022-08-04T06:51:25.591Z,2.80
2022-08-04T06:53:23.424Z,2.78
2022-08-04T06:55:52.970Z,2.55
2022-08-04T06:58:23.861Z,2.42
2022-08-04T07:00:55.685Z,2.08
2022-08-04T07:03:25.044Z,2.55
2022-08-04T07:05:54.182Z,2.60
2022-08-04T07:08:23.575Z,2.13
2022-08-04T07:10:54.389Z,2.10
2022-08-04T07:13:24.504Z,2.30
2022-08-04T07:15:57.185Z,1.92
2022-08-04T07:18:25.697Z,2.25
2022-08-04T07:20:54.573Z,2.72
2022-08-04T07:23:26.007Z,2.83
2022-08-04T07:26:11.695Z,2.83
2022-08-04T07:28:42.653Z,2.72
2022-08-04T07:31:33.452Z,2.30
2022-08-04T07:34:16.838Z,2.42
2022-08-04T07:36:52.771Z,2.17
2022-08-04T07:39:28.406Z,2.70
2022-08-04T07:42:01.492Z,2.90
2022-08-04T07:44:32.955Z,2.60
2022-08-04T07:47:05.784Z,2.50
2022-08-04T07:49:56.787Z,2.88
2022-08-04T07:52:23.685Z,2.22
2022-08-04T07:54:54.257Z,2.55
2022-08-04T07:57:41.210Z,2.30
2022-08-04T08:00:14.302Z,2.42
2022-08-04T08:02:46.832Z,1.90
2022-08-04T08:05:18.311Z,2.22
2022-08-04T08:07:50.853Z,2.45
2022-08-04T08:10:24.317Z,2.10
2022-08-04T08:12:53.810Z,2.10
2022-08-04T08:15:22.934Z,2.38
2022-08-04T08:17:58.264Z,1.80
2022-08-04T08:20:31.790Z,2.15
2022-08-04T08:23:02.934Z,2.50
2022-08-04T08:25:33.415Z,2.20
2022-08-04T08:28:04.097Z,2.10
2022-08-04T08:30:34.803Z,2.67
2022-08-04T08:33:07.130Z,2.10
2022-08-04T08:35:54.109Z,2.30
2022-08-04T08:38:44.415Z,2.20
2022-08-04T08:41:43.512Z,2.22
2022-08-04T08:44:37.634Z,2.20
2022-08-04T08:47:26.861Z,2.20
2022-08-04T08:50:11.596Z,2.00
2022-08-04T08:53:02.177Z,1.90
2022-08-04T08:55:43.856Z,1.88
2022-08-04T08:58:32.507Z,2.05
2022-08-04T09:01:11.321Z,1.98
2022-08-04T09:04:23.605Z,2.13
2022-08-04T09:07:25.875Z,1.92
2022-08-04T09:10:04.303Z,2.00
2022-08-04T09:12:41.474Z,2.55
2022-08-04T09:15:16.100Z,1.85
2022-08-04T09:17:49.015Z,2.05
2022-08-04T09:20:23.872Z,2.10
2022-08-04T09:23:01.101Z,1.70
2022-08-04T09:25:34.201Z,2.00
2022-08-04T09:28:09.464Z,1.95
2022-08-04T09:30:44.887Z,2.03
2022-08-04T09:33:44.957Z,1.80
2022-08-04T09:36:25.982Z,1.90
2022-08-04T09:39:07.617Z,2.10
2022-08-04T09:41:48.329Z,1.90
2022-08-04T09:44:50.906Z,2.00
2022-08-04T09:47:20.366Z,1.90
2022-08-04T09:49:56.980Z,1.85
2022-08-04T09:52:45.684Z,1.95
2022-08-04T09:55:29.299Z,1.80
2022-08-04T09:58:07.060Z,2.30
2022-08-04T10:00:41.653Z,2.00
2022-08-04T10:03:19.719Z,2.10
2022-08-04T10:06:04.179Z,2.10
2022-08-04T10:08:49.081Z,2.00
2022-08-04T10:11:32.658Z,1.85
2022-08-04T10:14:07.110Z,2.00
2022-08-04T10:16:47.092Z,2.00
2022-08-04T10:19:27.656Z,2.03
2022-08-04T10:22:30.001Z,1.85
2022-08-04T10:26:03.356Z,1.80
2022-08-04T10:28:06.374Z,1.98
2022-08-04T10:30:40.793Z,2.00
2022-08-04T10:33:13.622Z,1.80
2022-08-04T10:35:50.204Z,1.90
2022-08-04T10:38:27.124Z,1.88
2022-08-04T10:41:02.008Z,2.00
2022-08-04T10:43:44.022Z,1.92
2022-08-04T10:46:17.601Z,2.20
2022-08-04T10:48:51.543Z,2.28
2022-08-04T10:51:29.909Z,2.05
2022-08-04T10:54:01.930Z,1.83
2022-08-04T10:56:35.502Z,2.15
2022-08-04T10:59:11.501Z,1.92
2022-08-04T11:02:00.079Z,1.95
2022-08-04T11:04:42.381Z,1.90
2022-08-04T11:07:13.010Z,2.40
2022-08-04T11:09:43.239Z,1.80
2022-08-04T11:12:17.709Z,2.10
2022-08-04T11:14:52.511Z,1.90
2022-08-04T11:17:25.629Z,2.08
2022-08-04T11:20:18.666Z,2.03
2022-08-04T11:23:00.631Z,1.90
2022-08-04T11:25:41.388Z,2.40
2022-08-04T11:28:15.509Z,2.00
2022-08-04T11:30:55.015Z,2.10
2022-08-04T11:33:34.960Z,2.10
2022-08-04T11:36:15.626Z,1.83
2022-08-04T11:38:52.290Z,2.17
2022-08-04T11:41:27.744Z,1.88
2022-08-04T11:44:03.901Z,1.90
2022-08-04T11:46:43.312Z,1.80
2022-08-04T11:49:21.034Z,1.90
2022-08-04T11:51:51.461Z,1.80
2022-08-04T11:54:21.719Z,1.80
2022-08-04T11:56:50.285Z,1.58
2022-08-04T11:59:20.009Z,1.52
2022-08-04T12:02:02.148Z,1.98
2022-08-04T12:04:41.193Z,1.70
2022-08-04T12:07:33.711Z,1.50
2022-08-04T12:10:15.426Z,1.77
2022-08-04T12:12:52.506Z,1.55
2022-08-04T12:15:27.695Z,1.52
2022-08-04T12:18:08.757Z,1.50
2022-08-04T12:20:44.975Z,1.60
2022-08-04T12:23:22.879Z,1.70
2022-08-04T12:25:57.120Z,1.63
2022-08-04T12:28:52.423Z,1.70
2022-08-04T12:31:28.045Z,1.50
2022-08-04T12:34:04.595Z,1.60
2022-08-04T12:36:41.564Z,1.60
2022-08-04T12:39:13.756Z,1.70
2022-08-04T12:41:46.567Z,1.70
2022-08-04T12:44:36.592Z,1.70
2022-08-04T12:47:28.179Z,1.60
2022-08-04T12:50:02.054Z,1.75
2022-08-04T12:53:01.660Z,1.50
2022-08-04T12:55:29.798Z,1.67
2022-08-04T12:57:59.551Z,2.17
2022-08-04T13:00:34.191Z,1.70
2022-08-04T13:03:13.903Z,1.58
2022-08-04T13:05:49.181Z,1.70
2022-08-04T13:08:21.742Z,1.48
2022-08-04T13:10:55.293Z,1.63
2022-08-04T13:13:28.141Z,2.00
2022-08-04T13:15:59.022Z,1.63
2022-08-04T13:18:32.460Z,1.40
2022-08-04T13:21:19.903Z,1.60
2022-08-04T13:24:19.751Z,1.60
2022-08-04T13:26:55.400Z,1.70
2022-08-04T13:29:58.691Z,1.50
2022-08-04T13:32:23.542Z,1.70
2022-08-04T13:34:55.323Z,1.80
2022-08-04T13:37:27.881Z,1.90
2022-08-04T13:39:58.511Z,1.77
2022-08-04T13:42:30.078Z,2.10
2022-08-04T13:45:00.779Z,1.42
2022-08-04T13:47:35.407Z,1.67
2022-08-04T13:50:19.748Z,1.90
2022-08-04T13:52:53.954Z,1.60
2022-08-04T13:55:25.187Z,1.90
2022-08-04T13:57:59.352Z,1.90
2022-08-04T14:00:38.813Z,1.75
2022-08-04T14:03:23.791Z,1.63
2022-08-04T14:06:16.309Z,2.00
2022-08-04T14:08:55.233Z,1.63
2022-08-04T14:12:07.145Z,1.50
2022-08-04T14:14:27.471Z,1.63
2022-08-04T14:17:02.546Z,1.65
2022-08-04T14:19:49.028Z,1.60
2022-08-04T14:22:30.786Z,1.77
2022-08-04T14:25:04.135Z,1.70
2022-08-04T14:27:43.245Z,1.60
2022-08-04T14:30:27.065Z,1.92
2022-08-04T14:33:59.446Z,1.55
2022-08-04T14:36:03.809Z,1.73
2022-08-04T14:38:45.145Z,1.65
2022-08-04T14:41:15.853Z,1.45
2022-08-04T14:43:49.397Z,1.63
2022-08-04T14:46:19.716Z,1.50
2022-08-04T14:49:10.230Z,1.42
2022-08-04T14:51:42.077Z,1.80
2022-08-04T14:54:18.081Z,1.70
2022-08-04T14:56:55.916Z,1.73
2022-08-04T14:59:24.623Z,1.48
2022-08-04T15:02:00.663Z,1.98
2022-08-04T15:04:32.390Z,1.60
2022-08-04T15:07:04.586Z,1.50
2022-08-04T15:09:33.784Z,1.58
2022-08-04T15:12:05.466Z,1.38
2022-08-04T15:14:37.236Z,1.52
2022-08-04T15:17:29.463Z,1.67
2022-08-04T15:19:58.642Z,1.65
2022-08-04T15:22:27.973Z,1.50
2022-08-04T15:24:56.611Z,1.50
2022-08-04T15:27:29.861Z,1.77
2022-08-04T15:30:02.274Z,1.60
2022-08-04T15:32:32.320Z,1.67
2022-08-04T15:35:06.625Z,1.60
2022-08-04T15:37:44.983Z,1.60
2022-08-04T15:40:16.226Z,1.58
2022-08-04T15:42:49.896Z,1.65
2022-08-04T15:45:21.824Z,1.85
2022-08-04T15:48:34.368Z,1.67
2022-08-04T15:51:08.409Z,1.45
2022-08-04T15:54:23.307Z,1.42
2022-08-04T15:57:01.464Z,1.60
2022-08-04T16:00:11.082Z,1.60
2022-08-04T16:02:44.550Z,1.80
2022-08-04T16:05:37.132Z,1.90
2022-08-04T16:08:15.944Z,1.80
2022-08-04T16:10:47.007Z,1.70
2022-08-04T16:13:16.853Z,1.77
2022-08-04T16:15:52.009Z,1.85
2022-08-04T16:18:41.277Z,1.75
2022-08-04T16:21:21.264Z,1.75
2022-08-04T16:24:05.418Z,1.50
2022-08-04T16:26:54.351Z,1.92
2022-08-04T16:29:43.952Z,1.80
2022-08-04T16:32:16.591Z,1.80
2022-08-04T16:34:54.164Z,1.73
2022-08-04T16:37:33.148Z,1.55
2022-08-04T16:40:37.705Z,1.70
2022-08-04T16:43:09.831Z,1.60
2022-08-04T16:45:43.204Z,1.83
2022-08-04T16:48:14.459Z,1.40
2022-08-04T16:50:52.269Z,1.52
2022-08-04T16:53:52.671Z,1.60
2022-08-04T16:56:11.310Z,1.52
2022-08-04T16:58:54.440Z,1.55
2022-08-04T17:01:33.034Z,1.40
2022-08-04T17:04:08.039Z,1.55
2022-08-04T17:06:38.516Z,1.30
2022-08-04T17:09:11.119Z,1.40
2022-08-04T17:11:39.401Z,1.73
2022-08-04T17:14:08.219Z,1.42
2022-08-04T17:16:39.268Z,1.60
2022-08-04T17:19:23.823Z,1.40
2022-08-04T17:22:02.190Z,1.35
2022-08-04T17:24:32.622Z,1.30
2022-08-04T17:27:01.109Z,1.50
2022-08-04T17:29:44.171Z,1.15
2022-08-04T17:32:19.669Z,1.63
2022-08-04T17:34:51.057Z,1.70
2022-08-04T17:37:39.635Z,1.50
2022-08-04T17:40:22.520Z,1.70
2022-08-04T17:44:03.906Z,1.40
2022-08-04T17:46:31.394Z,1.52
2022-08-04T17:49:01.769Z,1.80
2022-08-04T17:52:05.208Z,1.50
2022-08-04T17:54:37.445Z,1.83
2022-08-04T17:57:19.672Z,2.92
2022-08-04T17:59:56.771Z,2.58
2022-08-04T18:02:32.195Z,1.83
2022-08-04T18:05:06.974Z,1.90
2022-08-04T18:10:51.709Z,2.45
2022-08-04T18:13:29.435Z,2.30
2022-08-04T18:16:21.888Z,2.25
2022-08-04T18:19:09.118Z,2.10
2022-08-04T18:21:46.692Z,1.75
2022-08-04T18:24:34.143Z,1.65
2022-08-04T18:27:17.940Z,2.10
2022-08-04T18:30:15.090Z,2.13
2022-08-04T18:32:35.684Z,1.85
2022-08-04T18:35:07.550Z,1.90
2022-08-04T18:38:05.207Z,2.05
2022-08-04T18:40:39.007Z,2.05
2022-08-04T18:43:18.514Z,2.60
2022-08-04T18:45:57.317Z,2.83
2022-08-04T18:48:36.738Z,2.33
2022-08-04T18:51:22.586Z,2.13
2022-08-04T18:53:54.984Z,2.33
2022-08-04T18:56:29.823Z,2.30
2022-08-04T18:59:17.243Z,2.33
2022-08-04T19:02:13.138Z,2.40
2022-08-04T19:04:36.976Z,2.55
2022-08-04T19:07:28.814Z,2.80
2022-08-04T19:09:58.621Z,2.50
2022-08-04T19:12:29.972Z,2.55
2022-08-04T19:15:08.082Z,2.35
2022-08-04T19:17:56.753Z,2.10
2022-08-04T19:20:26.775Z,2.42
2022-08-04T19:24:10.353Z,2.55
2022-08-04T19:28:37.463Z,2.42
2022-08-04T19:31:06.913Z,2.22
2022-08-04T19:33:58.223Z,2.30
2022-08-04T19:36:28.707Z,2.42
2022-08-04T19:38:58.598Z,2.15
2022-08-04T19:41:27.677Z,2.72
2022-08-04T19:43:57.319Z,2.83
2022-08-04T19:46:27.905Z,2.78
2022-08-04T19:49:00.341Z,2.83
2022-08-04T19:51:30.285Z,2.25
2022-08-04T19:54:03.782Z,2.65
2022-08-04T19:56:40.294Z,2.60
2022-08-04T19:59:11.481Z,2.50
2022-08-04T20:01:45.176Z,2.50
2022-08-04T20:04:14.881Z,2.60
2022-08-04T20:06:43.647Z,2.72
2022-08-04T20:09:24.732Z,2.78
2022-08-04T20:11:55.289Z,2.88
2022-08-04T20:14:32.282Z,2.60
2022-08-04T20:17:02.919Z,2.92
2022-08-04T20:19:31.792Z,2.72
2022-08-04T20:22:03.172Z,2.90
2022-08-04T20:24:39.123Z,3.05
2022-08-04T20:27:14.829Z,3.75
2022-08-04T20:29:55.637Z,3.40
2022-08-04T20:32:26.800Z,3.08
2022-08-04T20:34:57.415Z,2.45
2022-08-04T20:37:55.235Z,2.83
2022-08-04T20:40:15.888Z,2.70
2022-08-04T20:48:28.001Z,2.53
2022-08-04T20:50:56.406Z,3.00
2022-08-04T20:53:32.786Z,3.20
2022-08-04T20:56:19.094Z,3.20
2022-08-04T20:59:00.713Z,3.20
2022-08-04T21:01:31.190Z,2.28
2022-08-04T21:07:07.480Z,2.50
2022-08-04T21:09:50.074Z,2.47
2022-08-04T21:12:27.502Z,2.85
2022-08-04T21:15:01.183Z,2.70
2022-08-04T21:17:58.561Z,2.78
2022-08-04T21:20:32.385Z,2.47
2022-08-04T21:23:03.527Z,2.05
2022-08-04T21:25:42.710Z,2.10
2022-08-04T21:28:11.981Z,2.55
2022-08-04T21:30:54.576Z,1.90
2022-08-04T21:33:49.931Z,2.00
2022-08-04T21:36:19.493Z,2.20
2022-08-04T21:38:51.062Z,2.17
2022-08-04T21:41:25.054Z,2.75
2022-08-04T21:43:58.913Z,2.90
2022-08-04T21:46:27.600Z,2.65
2022-08-04T21:49:00.643Z,2.70
2022-08-04T21:51:57.824Z,2.28
2022-08-04T21:54:24.004Z,2.10
2022-08-04T21:56:57.124Z,2.50
2022-08-04T21:59:31.013Z,2.30
2022-08-04T22:04:53.072Z,2.13
2022-08-04T22:07:23.222Z,2.40
2022-08-04T22:10:02.257Z,2.40
2022-08-04T22:12:33.740Z,2.30
2022-08-04T22:15:22.934Z,2.60
2022-08-04T22:17:51.015Z,2.60
2022-08-04T22:20:31.208Z,2.30
2022-08-04T22:23:15.358Z,2.05
2022-08-04T22:25:44.944Z,1.90
2022-08-04T22:28:28.762Z,1.95
2022-08-04T22:30:58.215Z,1.98
2022-08-04T22:33:53.947Z,1.90
2022-08-04T22:36:17.728Z,2.47
2022-08-04T22:38:50.175Z,2.00
2022-08-04T22:41:33.668Z,1.90
2022-08-04T22:44:02.929Z,1.90
2022-08-04T22:46:31.429Z,2.10
2022-08-04T22:48:59.732Z,2.30
2022-08-04T22:51:30.176Z,2.00
2022-08-04T22:54:00.251Z,1.70
2022-08-04T22:56:37.915Z,2.22
2022-08-04T22:59:11.181Z,2.40
2022-08-04T23:01:57.855Z,1.80
2022-08-04T23:04:28.528Z,2.42
2022-08-04T23:06:58.705Z,1.88
2022-08-04T23:09:50.966Z,2.17
2022-08-04T23:12:26.297Z,3.10
2022-08-04T23:14:55.336Z,3.00
2022-08-04T23:17:24.051Z,3.05
2022-08-04T23:19:57.310Z,2.92
2022-08-04T23:22:41.738Z,2.45
2022-08-04T23:25:15.722Z,2.65
2022-08-04T23:27:50.448Z,2.67
2022-08-04T23:30:21.700Z,4.00
2022-08-04T23:32:53.154Z,4.70
2022-08-04T23:35:21.938Z,3.97
2022-08-04T23:37:57.592Z,3.20
2022-08-04T23:40:33.096Z,3.45
2022-08-04T23:43:11.994Z,3.08
2022-08-04T23:45:52.423Z,3.00
2022-08-04T23:48:34.244Z,2.67
2022-08-04T23:51:13.801Z,2.88
2022-08-04T23:54:02.225Z,3.00
2022-08-04T23:56:33.135Z,3.03
2022-08-04T23:59:04.115Z,2.75
